createdAt,value
2018-11-22T12:20:36.094Z,101390.39
2018-11-22T12:23:05.438Z,101390.14
2018-11-22T12:25:34.623Z,101391.84
2018-11-22T12:28:04.340Z,101391.38
2018-11-22T12:30:34.430Z,101393.59
2018-11-22T12:33:07.504Z,101393.13
2018-11-22T12:35:46.808Z,101392.11
2018-11-22T12:38:21.012Z,101393.25
2018-11-22T12:40:50.166Z,101390.05
2018-11-22T12:48:55.641Z,101395.94
2018-11-22T12:51:30.142Z,101387.06
2018-11-22T12:53:59.956Z,101381.70
2018-11-22T12:56:29.076Z,101381.39
2018-11-22T12:58:58.315Z,101381.39
2018-11-22T13:01:27.692Z,101364.61
2018-11-22T13:03:57.774Z,101359.16
2018-11-22T13:06:26.850Z,101356.45
2018-11-22T13:08:56.308Z,101360.98
2018-11-22T13:11:25.498Z,101353.08
2018-11-22T13:13:54.554Z,101355.67
2018-11-22T13:16:23.842Z,101343.20
2018-11-22T13:18:53.316Z,101346.44
2018-11-22T13:21:22.481Z,101346.74
2018-11-22T13:23:51.572Z,101341.08
2018-11-22T13:26:20.913Z,101340.83
2018-11-22T13:28:49.959Z,101334.88
2018-11-22T13:31:19.257Z,101338.64
2018-11-22T13:33:48.497Z,101340.00
2018-11-22T13:36:18.327Z,101338.37
2018-11-22T13:38:48.072Z,101327.99
2018-11-22T13:41:18.424Z,101332.86
2018-11-22T13:43:47.757Z,101327.45
2018-11-22T13:46:18.335Z,101332.89
2018-11-22T13:48:47.511Z,101321.53
2018-11-22T13:51:17.099Z,101317.73
2018-11-22T13:53:46.352Z,101325.09
2018-11-22T13:56:15.481Z,101319.20
2018-11-22T13:58:44.787Z,101314.33
2018-11-22T14:01:13.903Z,101308.39
2018-11-22T14:03:43.183Z,101308.91
2018-11-22T14:06:12.706Z,101317.02
2018-11-22T14:08:41.998Z,101314.31
2018-11-22T14:11:14.052Z,101311.55
2018-11-22T14:13:40.559Z,101312.06
2018-11-22T14:16:10.317Z,101304.50
2018-11-22T14:18:50.567Z,101310.19
2018-11-22T14:21:19.805Z,101299.84
2018-11-22T14:23:49.128Z,101298.19
2018-11-22T14:26:18.308Z,101300.63
2018-11-22T14:28:47.484Z,101297.34
2018-11-22T14:31:16.938Z,101304.41
2018-11-22T14:33:48.719Z,101302.75
2018-11-22T14:36:17.744Z,101302.95
2018-11-22T14:38:46.978Z,101305.08
2018-11-22T14:41:16.243Z,101306.90
2018-11-22T14:43:46.128Z,101301.92
2018-11-22T14:46:15.244Z,101304.02
2018-11-22T14:48:44.427Z,101308.77
2018-11-22T14:51:18.660Z,101306.25
2018-11-22T14:53:48.451Z,101305.86
2018-11-22T14:56:17.650Z,101309.00
2018-11-22T14:58:46.797Z,101307.86
2018-11-22T15:01:16.223Z,101297.47
2018-11-22T15:03:45.522Z,101299.28
2018-11-22T15:06:14.778Z,101297.08
2018-11-22T15:08:43.909Z,101301.04
2018-11-22T15:11:13.258Z,101303.69
2018-11-22T15:13:42.887Z,101306.36
2018-11-22T15:16:12.314Z,101311.95
2018-11-22T15:18:41.539Z,101310.02
2018-11-22T15:21:10.835Z,101308.35
2018-11-22T15:23:40.210Z,101307.25
2018-11-22T15:26:09.367Z,101306.91
2018-11-22T15:28:38.787Z,101307.67
2018-11-22T15:31:08.079Z,101310.34
2018-11-22T15:33:37.448Z,101299.22
2018-11-22T15:36:06.703Z,101309.52
2018-11-22T15:38:35.929Z,101295.70
2018-11-22T15:41:05.140Z,101297.06
2018-11-22T15:43:34.563Z,101300.53
2018-11-22T15:46:04.766Z,101307.58
2018-11-22T15:48:34.040Z,101306.22
2018-11-22T15:51:03.332Z,101306.22
2018-11-22T15:53:32.407Z,101305.98
2018-11-22T15:56:03.067Z,101305.73
2018-11-22T15:58:32.466Z,101308.16
2018-11-22T16:01:01.879Z,101298.69
2018-11-22T16:03:32.024Z,101304.69
2018-11-22T16:06:01.312Z,101303.92
2018-11-22T16:08:30.462Z,101301.80
2018-11-22T16:10:59.723Z,101304.27
2018-11-22T16:13:28.772Z,101302.66
2018-11-22T16:15:58.797Z,101308.14
2018-11-22T16:18:27.967Z,101308.42
2018-11-22T16:20:57.983Z,101299.80
2018-11-22T16:23:27.215Z,101305.56
2018-11-22T16:25:58.935Z,101304.20
2018-11-22T16:28:30.594Z,101293.69
2018-11-22T16:30:59.818Z,101299.93
2018-11-22T16:33:30.142Z,101303.16
2018-11-22T16:35:59.969Z,101302.33
2018-11-22T16:38:29.890Z,101295.88
2018-11-22T16:41:00.243Z,101305.63
2018-11-22T16:43:29.458Z,101302.39
2018-11-22T16:45:58.463Z,101304.80
2018-11-22T16:48:27.540Z,101302.64
2018-11-22T16:50:56.642Z,101309.62
2018-11-22T16:53:25.835Z,101307.98
2018-11-22T16:55:59.344Z,101310.63
2018-11-22T16:58:28.534Z,101312.23
2018-11-22T17:00:58.890Z,101318.72
2018-11-22T17:03:28.210Z,101309.70
2018-11-22T17:05:57.529Z,101322.96
2018-11-22T17:08:26.774Z,101319.73
2018-11-22T17:10:56.384Z,101312.66
2018-11-22T17:13:25.963Z,101316.20
2018-11-22T17:15:55.435Z,101318.63
2018-11-22T17:18:24.584Z,101316.20
2018-11-22T17:20:53.890Z,101320.31
2018-11-22T17:23:23.295Z,101321.42
2018-11-22T17:25:52.588Z,101323.83
2018-11-22T17:28:21.796Z,101318.14
2018-11-22T17:30:50.831Z,101320.02
2018-11-22T17:33:19.877Z,101318.14
2018-11-22T17:35:48.889Z,101323.24
2018-11-22T17:38:18.079Z,101323.24
2018-11-22T17:40:51.010Z,101323.83
2018-11-22T17:43:20.168Z,101318.14
2018-11-22T17:45:50.697Z,101321.13
2018-11-22T17:48:20.402Z,101317.06
2018-11-22T17:50:49.977Z,101326.53
2018-11-22T17:53:19.291Z,101325.18
2018-11-22T17:55:48.758Z,101323.55
2018-11-22T17:58:18.094Z,101319.42
2018-11-22T18:00:50.516Z,101321.02
2018-11-22T18:03:19.990Z,101323.70
2018-11-22T18:05:49.902Z,101319.27
2018-11-22T18:08:18.963Z,101318.13
2018-11-22T18:10:48.089Z,101321.28
2018-11-22T18:13:17.454Z,101317.44
2018-11-22T18:15:51.572Z,101312.72
2018-11-22T18:18:20.751Z,101322.95
2018-11-22T18:20:49.923Z,101323.96
2018-11-22T18:23:19.046Z,101324.72
2018-11-22T18:25:49.070Z,101325.80
2018-11-22T18:28:17.214Z,101314.11
2018-11-22T18:30:46.299Z,101322.99
2018-11-22T18:33:15.462Z,101333.22
2018-11-22T18:35:44.875Z,101337.73
2018-11-22T18:38:13.940Z,101332.28
2018-11-22T18:40:43.933Z,101323.82
2018-11-22T18:43:12.956Z,101324.27
2018-11-22T18:45:43.447Z,101334.53
2018-11-22T18:48:13.960Z,101331.23
2018-11-22T18:50:43.383Z,101335.22
2018-11-22T18:53:12.638Z,101345.16
2018-11-22T18:55:41.885Z,101338.64
2018-11-22T18:58:10.958Z,101342.63
2018-11-22T19:00:42.486Z,101344.81
2018-11-22T19:03:13.355Z,101347.20
2018-11-22T19:05:42.545Z,101342.88
2018-11-22T19:08:11.600Z,101341.20
2018-11-22T19:10:41.780Z,101340.69
2018-11-22T19:13:12.158Z,101339.81
2018-11-22T19:15:42.679Z,101335.45
2018-11-22T19:18:12.535Z,101324.83
2018-11-22T19:20:43.894Z,101330.69
2018-11-22T19:23:13.512Z,101333.04
2018-11-22T19:25:48.132Z,101330.05
2018-11-22T19:28:18.455Z,101332.45
2018-11-22T19:30:48.540Z,101329.46
2018-11-22T19:33:19.027Z,101330.22
2018-11-22T19:35:50.282Z,101324.22
2018-11-22T19:38:19.395Z,101325.57
2018-11-22T19:40:48.580Z,101326.92
2018-11-22T19:43:17.757Z,101335.27
2018-11-22T19:45:48.273Z,101334.44
2018-11-22T19:48:17.336Z,101344.45
2018-11-22T19:50:46.386Z,101344.73
2018-11-22T19:53:17.774Z,101348.27
2018-11-22T19:55:46.810Z,101347.19
2018-11-22T19:58:17.049Z,101340.75
2018-11-22T20:00:46.077Z,101330.81
2018-11-22T20:03:15.201Z,101333.00
2018-11-22T20:05:44.825Z,101332.45
2018-11-22T20:08:16.503Z,101331.09
2018-11-22T20:10:46.204Z,101328.94
2018-11-22T20:13:15.271Z,101324.34
2018-11-22T20:15:44.476Z,101331.41
2018-11-22T20:18:14.230Z,101334.63
2018-11-22T20:20:49.531Z,101331.41
2018-11-22T20:23:12.660Z,101337.57
2018-11-22T20:25:41.880Z,101329.15
2018-11-22T20:28:12.217Z,101330.30
2018-11-22T20:30:44.022Z,101332.16
2018-11-22T20:33:13.123Z,101332.16
2018-11-22T20:35:42.187Z,101327.28
2018-11-22T20:38:11.286Z,101326.76
2018-11-22T20:40:40.984Z,101333.52
2018-11-22T20:43:10.127Z,101334.34
2018-11-22T20:45:40.978Z,101341.11
2018-11-22T20:48:08.891Z,101336.50
2018-11-22T20:50:38.399Z,101340.03
2018-11-22T20:53:07.746Z,101340.86
2018-11-22T20:55:38.130Z,101346.27
2018-11-22T20:58:07.736Z,101340.86
2018-11-22T21:00:38.710Z,101348.49
2018-11-22T21:03:08.049Z,101345.27
2018-11-22T21:05:37.338Z,101348.02
2018-11-22T21:08:06.452Z,101343.44
2018-11-22T21:10:35.791Z,101339.11
2018-11-22T21:13:04.958Z,101342.61
2018-11-22T21:15:34.598Z,101344.27
2018-11-22T21:18:05.282Z,101341.81
2018-11-22T21:20:36.096Z,101338.87
2018-11-22T21:23:05.207Z,101335.92
2018-11-22T21:25:34.253Z,101332.98
2018-11-22T21:28:03.326Z,101331.95
2018-11-22T21:30:33.660Z,101333.89
2018-11-22T21:33:03.347Z,101340.16
2018-11-22T21:35:33.041Z,101343.15
2018-11-22T21:38:02.860Z,101341.55
2018-11-22T21:40:32.583Z,101336.74
2018-11-22T21:43:01.622Z,101333.52
2018-11-22T21:45:31.373Z,101336.53
2018-11-22T21:48:00.403Z,101334.39
2018-11-22T21:50:29.848Z,101337.09
2018-11-22T21:52:58.897Z,101326.28
2018-11-22T21:55:29.194Z,101326.34
2018-11-22T21:57:59.418Z,101322.29
2018-11-22T22:00:34.450Z,101306.94
2018-11-22T22:03:05.013Z,101305.34
2018-11-22T22:05:34.174Z,101301.01
2018-11-22T22:08:03.320Z,101298.23
2018-11-22T22:10:32.554Z,101296.84
2018-11-22T22:13:01.965Z,101294.08
2018-11-22T22:15:32.377Z,101301.39
2018-11-22T22:18:01.421Z,101299.72
2018-11-22T22:20:33.718Z,101293.28
2018-11-22T22:23:02.865Z,101293.55
2018-11-22T22:25:32.223Z,101287.39
2018-11-22T22:28:01.693Z,101286.06
2018-11-22T22:30:32.297Z,101289.12
2018-11-22T22:33:03.220Z,101269.43
2018-11-22T22:35:32.290Z,101273.55
2018-11-22T22:38:01.365Z,101273.62
2018-11-22T22:40:31.402Z,101259.30
2018-11-22T22:43:00.705Z,101273.66
2018-11-22T22:45:31.344Z,101266.65
2018-11-22T22:48:00.443Z,101267.23
2018-11-22T22:50:31.056Z,101272.95
2018-11-22T22:53:01.054Z,101266.47
2018-11-22T22:55:30.513Z,101264.59
2018-11-22T22:57:59.513Z,101271.88
2018-11-22T23:00:34.045Z,101272.74
2018-11-22T23:03:04.575Z,101273.58
2018-11-22T23:05:33.941Z,101270.63
2018-11-22T23:08:03.365Z,101269.28
2018-11-22T23:10:32.518Z,101262.52
2018-11-22T23:13:02.102Z,101269.58
2018-11-22T23:15:31.971Z,101267.68
2018-11-22T23:18:14.635Z,101265.28
2018-11-22T23:21:01.726Z,101263.41
2018-11-22T23:23:48.175Z,101266.91
2018-11-22T23:26:18.044Z,101266.70
2018-11-22T23:28:48.897Z,101266.39
2018-11-22T23:31:36.430Z,101270.76
2018-11-22T23:34:22.620Z,101267.22
2018-11-22T23:37:08.143Z,101264.27
2018-11-22T23:39:55.948Z,101257.78
2018-11-22T23:42:44.390Z,101269.69
2018-11-22T23:45:32.971Z,101262.40
2018-11-22T23:48:22.409Z,101258.86
2018-11-22T23:51:10.410Z,101254.22
2018-11-22T23:53:58.241Z,101246.35
2018-11-22T23:56:45.200Z,101257.10
2018-11-22T23:59:33.760Z,101257.59
